createdAt,value
2023-04-25T00:01:06.366Z,100.00
2023-04-25T00:03:33.595Z,100.00
2023-04-25T00:06:02.961Z,100.00
2023-04-25T00:08:32.344Z,100.00
2023-04-25T00:10:59.289Z,100.00
2023-04-25T00:13:26.550Z,100.00
2023-04-25T00:16:01.197Z,100.00
2023-04-25T00:18:30.789Z,100.00
2023-04-25T00:20:57.353Z,100.00
2023-04-25T00:23:25.004Z,100.00
2023-04-25T00:25:51.819Z,100.00
2023-04-25T00:28:18.449Z,100.00
2023-04-25T00:30:45.069Z,100.00
2023-04-25T00:33:11.688Z,100.00
2023-04-25T00:35:39.562Z,100.00
2023-04-25T00:38:06.128Z,100.00
2023-04-25T00:40:32.809Z,100.00
2023-04-25T00:42:59.406Z,100.00
2023-04-25T00:45:30.652Z,100.00
2023-04-25T00:47:57.602Z,100.00
2023-04-25T00:50:24.940Z,100.00
2023-04-25T00:52:51.960Z,100.00
2023-04-25T00:55:18.831Z,100.00
2023-04-25T00:57:45.486Z,100.00
2023-04-25T01:00:12.415Z,100.00
2023-04-25T01:02:39.140Z,100.00
2023-04-25T01:05:06.101Z,100.00
2023-04-25T01:07:32.696Z,100.00
2023-04-25T01:09:59.221Z,100.00
2023-04-25T01:12:25.816Z,100.00
2023-04-25T01:14:52.469Z,100.00
2023-04-25T01:17:20.678Z,100.00
2023-04-25T01:19:49.197Z,100.00
2023-04-25T01:22:16.123Z,100.00
2023-04-25T01:24:42.815Z,100.00
2023-04-25T01:27:09.792Z,100.00
2023-04-25T01:29:37.288Z,100.00
2023-04-25T01:32:04.529Z,100.00
2023-04-25T01:34:31.180Z,100.00
2023-04-25T01:37:00.355Z,100.00
2023-04-25T01:39:27.136Z,100.00
2023-04-25T01:41:53.902Z,100.00
2023-04-25T01:44:20.559Z,100.00
2023-04-25T01:46:47.124Z,100.00
2023-04-25T01:49:13.762Z,100.00
2023-04-25T01:51:40.761Z,100.00
2023-04-25T01:54:08.349Z,100.00
2023-04-25T01:56:38.339Z,100.00
2023-04-25T01:59:06.516Z,100.00
2023-04-25T02:01:45.374Z,100.00
2023-04-25T02:04:12.178Z,100.00
2023-04-25T02:06:38.781Z,100.00
2023-04-25T02:09:05.297Z,100.00
2023-04-25T02:11:31.867Z,100.00
2023-04-25T02:13:58.419Z,100.00
2023-04-25T02:16:26.190Z,100.00
2023-04-25T02:18:53.832Z,100.00
2023-04-25T02:21:20.458Z,100.00
2023-04-25T02:23:49.969Z,100.00
2023-04-25T02:26:16.711Z,100.00
2023-04-25T02:28:43.299Z,100.00
2023-04-25T02:31:09.917Z,100.00
2023-04-25T02:33:36.525Z,100.00
2023-04-25T02:36:03.334Z,100.00
2023-04-25T02:38:29.901Z,100.00
2023-04-25T02:40:56.470Z,100.00
2023-04-25T02:43:23.108Z,100.00
2023-04-25T02:45:49.692Z,100.00
2023-04-25T02:48:16.403Z,100.00
2023-04-25T02:50:43.165Z,100.00
2023-04-25T02:53:09.729Z,100.00
2023-04-25T02:55:36.383Z,100.00
2023-04-25T02:58:02.984Z,100.00
2023-04-25T03:00:29.589Z,100.00
2023-04-25T03:02:57.567Z,100.00
2023-04-25T03:05:24.238Z,100.00
2023-04-25T03:07:50.781Z,100.00
2023-04-25T03:10:17.371Z,100.00
2023-04-25T03:12:43.885Z,100.00
2023-04-25T03:15:10.774Z,100.00
2023-04-25T03:17:37.398Z,100.00
2023-04-25T03:20:05.124Z,100.00
2023-04-25T03:22:31.817Z,100.00
2023-04-25T03:24:58.373Z,100.00
2023-04-25T03:27:24.911Z,100.00
2023-04-25T03:29:51.471Z,100.00
2023-04-25T03:32:18.257Z,100.00
2023-04-25T03:34:44.909Z,100.00
2023-04-25T03:37:11.521Z,100.00
2023-04-25T03:39:38.708Z,100.00
2023-04-25T03:42:05.405Z,100.00
2023-04-25T03:44:31.925Z,100.00
2023-04-25T03:46:58.978Z,100.00
2023-04-25T03:49:26.182Z,100.00
2023-04-25T03:51:52.693Z,100.00
2023-04-25T03:54:19.306Z,100.00
2023-04-25T03:56:45.804Z,100.00
2023-04-25T03:59:12.328Z,100.00
2023-04-25T04:01:38.949Z,100.00
2023-04-25T04:04:05.668Z,100.00
2023-04-25T04:06:32.412Z,100.00
2023-04-25T04:08:59.024Z,100.00
2023-04-25T04:11:25.562Z,100.00
2023-04-25T04:13:52.424Z,100.00
2023-04-25T04:16:19.889Z,100.00
2023-04-25T04:18:46.968Z,100.00
2023-04-25T04:21:13.500Z,100.00
2023-04-25T04:23:40.092Z,100.00
2023-04-25T04:26:08.203Z,100.00
2023-04-25T04:28:34.838Z,100.00
2023-04-25T04:31:02.102Z,100.00
2023-04-25T04:33:29.103Z,100.00
2023-04-25T04:35:56.744Z,100.00
2023-04-25T04:38:23.336Z,100.00
2023-04-25T04:40:49.920Z,100.00
2023-04-25T04:43:18.143Z,100.00
2023-04-25T04:45:45.679Z,100.00
2023-04-25T04:48:15.054Z,100.00
2023-04-25T04:50:42.051Z,100.00
2023-04-25T04:53:08.613Z,100.00
2023-04-25T04:55:35.407Z,100.00
2023-04-25T04:58:01.918Z,100.00
2023-04-25T05:00:30.572Z,100.00
2023-04-25T05:02:57.781Z,100.00
2023-04-25T05:05:24.507Z,100.00
2023-04-25T05:07:51.260Z,100.00
2023-04-25T05:10:19.542Z,100.00
2023-04-25T05:12:46.199Z,100.00
2023-04-25T05:15:13.005Z,100.00
2023-04-25T05:17:40.108Z,100.00
2023-04-25T05:20:10.505Z,100.00
2023-04-25T05:22:37.105Z,100.00
2023-04-25T05:25:04.626Z,100.00
2023-04-25T05:27:31.169Z,100.00
2023-04-25T05:29:57.741Z,100.00
2023-04-25T05:32:26.128Z,100.00
2023-04-25T05:34:53.012Z,100.00
2023-04-25T05:37:19.827Z,100.00
2023-04-25T05:39:46.461Z,100.00
2023-04-25T05:42:12.998Z,100.00
2023-04-25T05:44:39.689Z,100.00
2023-04-25T05:47:06.389Z,100.00
2023-04-25T05:49:32.981Z,100.00
2023-04-25T05:51:59.571Z,100.00
2023-04-25T05:54:26.093Z,100.00
2023-04-25T05:56:52.639Z,100.00
2023-04-25T05:59:19.233Z,100.00
2023-04-25T06:01:48.055Z,100.00
2023-04-25T06:04:14.787Z,100.00
2023-04-25T06:06:41.646Z,100.00
2023-04-25T06:09:08.179Z,100.00
2023-04-25T06:11:34.702Z,99.22
2023-04-25T06:14:01.617Z,94.96
2023-04-25T06:16:28.205Z,94.85
2023-04-25T06:18:54.999Z,89.67
2023-04-25T06:21:21.713Z,83.01
2023-04-25T06:23:48.394Z,77.72
2023-04-25T06:26:15.092Z,76.61
2023-04-25T06:28:41.793Z,75.85
2023-04-25T06:31:08.342Z,73.79
2023-04-25T06:33:34.898Z,76.77
2023-04-25T06:36:01.441Z,76.94
2023-04-25T06:38:27.970Z,78.54
2023-04-25T06:40:54.488Z,81.95
2023-04-25T06:43:21.139Z,85.02
2023-04-25T06:45:48.590Z,87.96
2023-04-25T06:48:15.316Z,87.96
2023-04-25T06:50:41.905Z,85.85
2023-04-25T06:53:09.777Z,87.12
2023-04-25T06:55:36.623Z,87.21
2023-04-25T06:58:03.194Z,89.71
2023-04-25T07:00:29.864Z,89.01
2023-04-25T07:02:56.563Z,80.22
2023-04-25T07:18:07.024Z,72.60
2023-04-25T07:20:33.838Z,68.13
2023-04-25T07:23:00.429Z,68.65
2023-04-25T07:25:26.986Z,65.33
2023-04-25T07:27:53.518Z,62.60
2023-04-25T07:30:20.228Z,60.96
2023-04-25T07:32:46.851Z,63.50
2023-04-25T07:35:13.616Z,61.78
2023-04-25T07:37:40.283Z,55.80
2023-04-25T07:40:07.355Z,53.73
2023-04-25T07:42:33.865Z,56.36
2023-04-25T07:45:01.403Z,58.20
2023-04-25T07:47:28.057Z,59.93
2023-04-25T07:49:55.148Z,58.46
2023-04-25T07:52:22.427Z,56.04
2023-04-25T07:54:49.491Z,54.13
2023-04-25T07:57:17.722Z,53.17
2023-04-25T07:59:44.507Z,53.94
2023-04-25T08:02:11.151Z,54.01
2023-04-25T08:04:37.909Z,55.16
2023-04-25T08:07:04.633Z,55.52
2023-04-25T08:09:35.550Z,52.83
2023-04-25T08:12:03.122Z,55.75
2023-04-25T08:14:36.559Z,53.11
2023-04-25T08:17:04.609Z,51.84
2023-04-25T08:19:31.810Z,52.46
2023-04-25T08:21:58.916Z,52.96
2023-04-25T08:24:25.433Z,51.55
2023-04-25T08:26:52.664Z,51.83
2023-04-25T08:29:19.265Z,52.59
2023-04-25T08:31:45.881Z,52.85
2023-04-25T08:34:12.500Z,53.44
2023-04-25T08:36:40.377Z,51.44
2023-04-25T08:39:07.978Z,52.58
2023-04-25T08:41:34.586Z,54.84
2023-04-25T08:44:03.721Z,54.08
2023-04-25T08:46:32.310Z,52.42
2023-04-25T08:49:03.075Z,55.18
2023-04-25T08:51:32.870Z,55.13
2023-04-25T08:54:27.255Z,54.04
2023-04-25T08:56:59.096Z,55.32
2023-04-25T08:59:25.865Z,56.54
2023-04-25T09:01:52.480Z,56.35
2023-04-25T09:04:21.378Z,56.22
2023-04-25T09:06:49.191Z,55.88
2023-04-25T09:09:15.863Z,55.10
2023-04-25T09:11:42.524Z,58.45
2023-04-25T09:14:16.459Z,52.66
2023-04-25T09:17:01.132Z,53.00
2023-04-25T09:19:40.307Z,54.16
2023-04-25T09:22:09.036Z,53.95
2023-04-25T09:24:47.199Z,52.45
2023-04-25T09:27:19.607Z,52.54
2023-04-25T09:29:47.304Z,53.52
2023-04-25T09:32:23.596Z,52.54
2023-04-25T09:34:52.163Z,54.94
2023-04-25T09:37:23.997Z,55.32
2023-04-25T09:39:54.964Z,51.61
2023-04-25T09:42:26.323Z,56.15
2023-04-25T09:44:54.363Z,57.16
2023-04-25T09:47:24.233Z,55.21
2023-04-25T09:49:52.105Z,51.77
2023-04-25T09:52:25.323Z,50.83
2023-04-25T09:54:53.512Z,50.93
2023-04-25T09:57:24.821Z,52.58
2023-04-25T09:59:53.376Z,53.84
2023-04-25T10:02:23.637Z,55.07
2023-04-25T10:04:53.815Z,56.00
2023-04-25T10:07:22.379Z,54.50
2023-04-25T10:09:53.034Z,51.92
2023-04-25T10:12:20.930Z,50.99
2023-04-25T10:14:48.642Z,49.77
2023-04-25T10:17:15.359Z,53.68
2023-04-25T10:19:41.987Z,55.19
2023-04-25T10:22:16.035Z,52.67
2023-04-25T10:24:42.871Z,53.33
2023-04-25T10:27:09.853Z,52.29
2023-04-25T10:29:36.481Z,52.42
2023-04-25T10:32:03.474Z,49.21
2023-04-25T10:34:44.351Z,48.96
2023-04-25T10:37:12.224Z,54.15
2023-04-25T10:39:43.187Z,54.84
2023-04-25T10:42:09.955Z,52.00
2023-04-25T10:44:39.161Z,53.81
2023-04-25T10:47:08.502Z,53.15
2023-04-25T10:49:43.041Z,53.25
2023-04-25T10:52:30.705Z,50.58
2023-04-25T10:54:58.872Z,49.20
2023-04-25T10:57:32.474Z,48.97
2023-04-25T11:00:09.583Z,47.22
2023-04-25T11:02:47.939Z,51.43
2023-04-25T11:05:27.955Z,49.53
2023-04-25T11:08:06.282Z,47.17
2023-04-25T11:10:38.144Z,46.63
2023-04-25T11:13:05.248Z,46.24
2023-04-25T11:15:31.806Z,47.99
2023-04-25T11:17:58.410Z,46.07
2023-04-25T11:20:29.190Z,47.06
2023-04-25T11:23:00.155Z,49.34
2023-04-25T11:25:27.050Z,51.28
2023-04-25T11:27:58.864Z,51.50
2023-04-25T11:30:27.251Z,51.29
2023-04-25T11:32:54.098Z,46.46
2023-04-25T11:35:23.892Z,44.96
2023-04-25T11:37:51.259Z,44.57
2023-04-25T11:40:18.246Z,43.22
2023-04-25T11:42:46.707Z,42.60
2023-04-25T11:45:14.900Z,43.46
2023-04-25T11:47:41.754Z,44.35
2023-04-25T11:50:09.505Z,47.23
2023-04-25T11:52:44.151Z,43.50
2023-04-25T11:55:15.730Z,42.55
2023-04-25T11:57:43.817Z,41.28
2023-04-25T12:00:21.981Z,42.20
2023-04-25T12:02:52.790Z,43.18
2023-04-25T12:05:32.203Z,42.05
2023-04-25T12:08:10.144Z,41.53
2023-04-25T12:10:41.715Z,42.06
2023-04-25T12:13:21.310Z,44.40
2023-04-25T12:15:47.910Z,45.87
2023-04-25T12:18:14.571Z,46.22
2023-04-25T12:20:43.030Z,47.01
2023-04-25T12:23:09.631Z,46.50
2023-04-25T12:25:45.609Z,42.62
2023-04-25T12:28:24.003Z,43.66
2023-04-25T12:31:04.214Z,44.41
2023-04-25T12:33:35.827Z,44.32
2023-04-25T12:36:08.736Z,41.55
2023-04-25T12:38:42.934Z,38.24
2023-04-25T12:41:10.281Z,39.67
2023-04-25T12:43:36.832Z,40.28
2023-04-25T12:46:22.189Z,40.12
2023-04-25T12:48:48.859Z,38.03
2023-04-25T12:51:15.617Z,38.18
2023-04-25T12:53:42.739Z,33.66
2023-04-25T12:56:09.895Z,33.57
2023-04-25T12:58:36.677Z,31.15
2023-04-25T13:01:03.330Z,31.72
2023-04-25T13:03:30.101Z,30.96
2023-04-25T13:05:56.761Z,32.16
2023-04-25T13:08:23.361Z,32.63
2023-04-25T13:10:49.942Z,33.16
2023-04-25T13:13:17.740Z,32.18
2023-04-25T13:15:44.685Z,30.15
2023-04-25T13:18:11.336Z,29.51
2023-04-25T13:20:37.951Z,28.53
2023-04-25T13:23:04.532Z,27.85
2023-04-25T13:25:31.237Z,27.60
2023-04-25T13:27:57.758Z,29.03
2023-04-25T13:30:24.730Z,30.19
2023-04-25T13:32:51.307Z,31.34
2023-04-25T13:35:18.076Z,31.21
2023-04-25T13:37:44.650Z,31.14
2023-04-25T13:40:12.303Z,29.14
2023-04-25T13:42:39.731Z,27.49
2023-04-25T13:45:07.706Z,25.92
2023-04-25T13:47:35.510Z,24.00
2023-04-25T13:53:49.869Z,23.48
2023-04-25T13:56:16.678Z,23.57
2023-04-25T13:58:43.212Z,23.77
2023-04-25T14:01:09.868Z,23.94
2023-04-25T14:03:36.819Z,24.09
2023-04-25T14:06:03.523Z,22.85
2023-04-25T14:08:30.034Z,23.10
2023-04-25T14:10:56.770Z,23.03
2023-04-25T14:13:24.396Z,23.21
2023-04-25T14:15:51.537Z,23.48
2023-04-25T14:18:18.453Z,23.07
2023-04-25T14:20:45.257Z,22.13
2023-04-25T14:23:11.923Z,22.09
2023-04-25T14:25:38.895Z,22.62
2023-04-25T14:28:06.055Z,21.48
2023-04-25T14:30:32.767Z,22.58
2023-04-25T14:32:59.395Z,22.86
2023-04-25T14:35:26.190Z,22.40
2023-04-25T14:37:53.912Z,21.88
2023-04-25T14:40:23.919Z,21.30
2023-04-25T14:42:52.079Z,20.97
2023-04-25T14:45:18.724Z,20.83
2023-04-25T14:47:45.687Z,19.96
2023-04-25T14:50:12.414Z,19.22
2023-04-25T14:52:39.194Z,19.26
2023-04-25T14:55:06.354Z,19.35
2023-04-25T14:57:36.427Z,19.07
2023-04-25T15:00:06.005Z,19.29
2023-04-25T15:02:32.611Z,18.73
2023-04-25T15:04:59.517Z,19.95
2023-04-25T15:07:26.845Z,19.33
2023-04-25T15:09:54.363Z,19.29
2023-04-25T15:12:21.452Z,19.28
2023-04-25T15:14:48.086Z,19.36
2023-04-25T15:17:15.223Z,19.76
2023-04-25T15:19:41.768Z,19.91
2023-04-25T15:22:08.439Z,18.93
2023-04-25T15:24:35.582Z,19.21
2023-04-25T15:27:02.371Z,19.65
2023-04-25T15:29:29.763Z,19.04
2023-04-25T15:31:56.386Z,19.60
2023-04-25T15:34:22.977Z,19.84
2023-04-25T15:36:50.005Z,20.61
2023-04-25T15:39:16.618Z,21.06
2023-04-25T15:41:43.145Z,21.87
2023-04-25T15:44:11.025Z,22.68
2023-04-25T15:46:38.370Z,24.34
2023-04-25T15:49:04.998Z,24.96
2023-04-25T15:51:31.904Z,25.63
2023-04-25T15:53:58.466Z,26.25
2023-04-25T15:56:24.995Z,27.37
2023-04-25T15:58:51.764Z,27.85
2023-04-25T16:01:18.441Z,28.21
2023-04-25T16:03:45.272Z,28.66
2023-04-25T16:06:12.049Z,29.36
2023-04-25T16:08:38.606Z,29.19
2023-04-25T16:11:05.358Z,30.17
2023-04-25T16:13:33.653Z,30.37
2023-04-25T16:16:00.227Z,31.01
2023-04-25T16:18:26.756Z,31.49
2023-04-25T16:20:53.490Z,31.77
2023-04-25T16:23:23.009Z,31.84
2023-04-25T16:25:50.719Z,32.43
2023-04-25T16:28:17.347Z,32.79
2023-04-25T16:30:44.015Z,32.79
2023-04-25T16:33:10.586Z,33.21
2023-04-25T16:35:37.186Z,33.31
2023-04-25T16:38:03.910Z,33.89
2023-04-25T16:40:30.483Z,33.80
2023-04-25T16:42:57.128Z,34.33
2023-04-25T16:45:24.400Z,34.46
2023-04-25T16:47:50.985Z,34.95
2023-04-25T16:50:19.523Z,35.04
2023-04-25T16:52:46.094Z,35.60
2023-04-25T16:55:12.665Z,35.72
2023-04-25T16:57:39.231Z,36.68
2023-04-25T17:00:06.768Z,36.56
2023-04-25T17:02:33.547Z,37.30
2023-04-25T17:05:00.281Z,37.63
2023-04-25T17:07:26.913Z,37.84
2023-04-25T17:09:53.541Z,38.21
2023-04-25T17:12:20.658Z,38.78
2023-04-25T17:14:47.228Z,39.42
2023-04-25T17:17:13.803Z,39.73
2023-04-25T17:19:40.532Z,40.19
2023-04-25T17:22:07.155Z,40.07
2023-04-25T17:24:33.715Z,40.56
2023-04-25T17:27:01.626Z,41.38
2023-04-25T17:29:28.199Z,41.41
2023-04-25T17:31:56.985Z,41.76
2023-04-25T17:34:23.609Z,42.34
2023-04-25T17:36:50.165Z,42.31
2023-04-25T17:39:17.596Z,42.14
2023-04-25T17:41:44.801Z,43.21
2023-04-25T17:44:11.484Z,42.86
2023-04-25T17:46:38.074Z,43.05
2023-04-25T17:49:04.784Z,43.08
2023-04-25T17:51:31.702Z,42.46
2023-04-25T17:53:58.252Z,43.20
2023-04-25T17:56:27.252Z,43.57
2023-04-25T17:58:55.290Z,43.80
2023-04-25T18:01:22.760Z,44.57
2023-04-25T18:03:50.344Z,44.86
2023-04-25T18:06:18.378Z,45.82
2023-04-25T18:08:45.366Z,45.92
2023-04-25T18:11:12.347Z,47.06
2023-04-25T18:13:39.689Z,53.80
2023-04-25T18:16:07.207Z,59.71
2023-04-25T18:18:36.171Z,72.28
2023-04-25T18:21:05.772Z,78.86
2023-04-25T18:23:34.087Z,68.07
2023-04-25T18:26:02.381Z,68.05
2023-04-25T18:28:29.605Z,65.31
2023-04-25T18:30:56.892Z,61.75
2023-04-25T18:33:23.855Z,60.73
2023-04-25T18:35:58.243Z,58.67
2023-04-25T18:38:35.409Z,59.77
2023-04-25T18:41:15.404Z,59.93
2023-04-25T18:43:49.787Z,58.34
2023-04-25T18:46:17.765Z,58.72
2023-04-25T18:48:44.630Z,58.76
2023-04-25T18:51:11.378Z,58.96
2023-04-25T18:53:38.201Z,57.96
2023-04-25T18:56:05.403Z,58.71
2023-04-25T18:58:32.711Z,59.37
2023-04-25T19:01:00.404Z,59.55
2023-04-25T19:03:28.868Z,59.81
2023-04-25T19:05:55.800Z,58.94
2023-04-25T19:08:23.409Z,58.82
2023-04-25T19:10:53.730Z,60.18
2023-04-25T19:13:21.220Z,59.58
2023-04-25T19:15:48.072Z,58.65
2023-04-25T19:18:15.060Z,58.96
2023-04-25T19:20:42.014Z,58.92
2023-04-25T19:23:09.225Z,59.91
2023-04-25T19:25:36.950Z,59.92
2023-04-25T19:28:03.614Z,59.93
2023-04-25T19:30:31.486Z,60.57
2023-04-25T19:32:58.091Z,61.23
2023-04-25T19:35:25.461Z,60.96
2023-04-25T19:37:51.985Z,61.58
2023-04-25T19:40:19.663Z,61.83
2023-04-25T19:42:46.415Z,61.01
2023-04-25T19:45:13.126Z,60.32
2023-04-25T19:47:39.842Z,61.57
2023-04-25T19:50:08.469Z,61.31
2023-04-25T19:52:36.013Z,62.47
2023-04-25T19:55:05.000Z,63.06
2023-04-25T19:57:36.872Z,64.00
2023-04-25T20:00:12.884Z,63.53
2023-04-25T20:02:40.872Z,63.69
2023-04-25T20:05:08.672Z,64.18
2023-04-25T20:07:35.425Z,64.31
2023-04-25T20:10:02.070Z,64.50
2023-04-25T20:12:28.697Z,64.98
2023-04-25T20:14:56.329Z,66.08
2023-04-25T20:17:25.950Z,66.66
2023-04-25T20:19:54.645Z,65.98
2023-04-25T20:22:21.214Z,67.18
2023-04-25T20:24:47.762Z,66.94
2023-04-25T20:27:16.617Z,67.56
2023-04-25T20:30:13.747Z,67.11
2023-04-25T20:32:40.585Z,68.29
2023-04-25T20:35:11.368Z,69.71
2023-04-25T20:37:37.974Z,70.74
2023-04-25T20:40:08.737Z,69.50
2023-04-25T20:42:36.310Z,68.54
2023-04-25T20:45:07.543Z,71.16
2023-04-25T20:47:34.818Z,69.27
2023-04-25T20:50:03.869Z,69.94
2023-04-25T20:52:31.929Z,70.76
2023-04-25T20:54:58.980Z,70.05
2023-04-25T20:57:25.938Z,70.63
2023-04-25T20:59:52.988Z,71.02
2023-04-25T21:02:20.110Z,71.88
2023-04-25T21:04:46.737Z,72.43
2023-04-25T21:07:13.778Z,75.26
2023-04-25T21:09:45.357Z,76.87
2023-04-25T21:12:12.434Z,78.44
2023-04-25T21:14:38.976Z,78.27
2023-04-25T21:17:05.656Z,78.82
2023-04-25T21:19:32.363Z,79.69
2023-04-25T21:21:59.304Z,80.79
2023-04-25T21:24:27.160Z,81.45
2023-04-25T21:26:53.758Z,81.18
2023-04-25T21:29:20.286Z,80.46
2023-04-25T21:31:47.041Z,81.31
2023-04-25T21:34:13.662Z,83.47
2023-04-25T21:36:41.306Z,83.85
2023-04-25T21:39:07.979Z,85.37
2023-04-25T21:41:34.559Z,86.02
2023-04-25T21:44:01.161Z,86.06
2023-04-25T21:46:27.733Z,85.67
2023-04-25T21:48:54.986Z,86.47
2023-04-25T21:51:22.713Z,87.83
2023-04-25T21:53:49.253Z,88.91
2023-04-25T21:56:16.022Z,90.61
2023-04-25T21:58:42.621Z,91.23
2023-04-25T22:01:09.969Z,91.51
2023-04-25T22:03:36.709Z,94.68
2023-04-25T22:06:04.083Z,93.22
2023-04-25T22:08:30.659Z,93.10
2023-04-25T22:10:57.277Z,95.03
2023-04-25T22:13:23.942Z,95.33
2023-04-25T22:15:50.803Z,95.63
2023-04-25T22:18:18.010Z,96.85
2023-04-25T22:20:44.884Z,95.70
2023-04-25T22:23:12.167Z,96.76
2023-04-25T22:25:38.821Z,98.08
2023-04-25T22:28:05.482Z,99.24
2023-04-25T22:30:32.680Z,99.88
2023-04-25T22:32:59.358Z,100.00
2023-04-25T22:35:26.125Z,100.00
2023-04-25T22:37:53.049Z,100.00
2023-04-25T22:40:19.857Z,100.00
2023-04-25T22:42:46.737Z,100.00
2023-04-25T22:45:13.395Z,100.00
2023-04-25T22:47:40.324Z,100.00
2023-04-25T22:50:12.900Z,100.00
2023-04-25T22:52:39.716Z,100.00
2023-04-25T22:55:06.877Z,100.00
2023-04-25T22:57:33.678Z,100.00
2023-04-25T23:00:00.238Z,100.00
2023-04-25T23:02:27.495Z,100.00
2023-04-25T23:04:55.049Z,100.00
2023-04-25T23:07:21.675Z,100.00
2023-04-25T23:09:48.210Z,100.00
2023-04-25T23:12:18.060Z,100.00
2023-04-25T23:14:48.744Z,100.00
2023-04-25T23:17:15.273Z,100.00
2023-04-25T23:19:41.782Z,100.00
2023-04-25T23:22:08.559Z,100.00
2023-04-25T23:24:39.122Z,100.00
2023-04-25T23:27:05.723Z,100.00
2023-04-25T23:29:34.023Z,100.00
2023-04-25T23:32:03.761Z,100.00
2023-04-25T23:34:34.297Z,100.00
2023-04-25T23:37:01.640Z,100.00
2023-04-25T23:39:28.557Z,100.00
2023-04-25T23:41:55.760Z,100.00
2023-04-25T23:44:22.553Z,100.00
2023-04-25T23:46:49.865Z,100.00
2023-04-25T23:49:16.483Z,100.00
2023-04-25T23:51:43.184Z,100.00
2023-04-25T23:54:09.716Z,100.00
2023-04-25T23:56:36.252Z,100.00
2023-04-25T23:59:03.778Z,100.00
